Time;durP1;ratioP1;P1;durP2;ratioP2;P2;SDS_P1;SDS_P2;PMS_P1;PMS_P2;Temp;Humidity;BMP_temperature;BMP_pressure;BME280_temperature;BME280_humidity;BME280_pressure;Samples;Min_cycle;Max_cycle;Signal;HPM_P1;HPM_P2
2022/04/07 00:00:45;;;;;;;0.10;0.10;;;9.10;99.90;;;;;;5025335;28;20574;-61
2022/04/07 00:03:11;;;;;;;0.00;0.00;;;9.10;99.90;;;;;;5031247;28;20057;-61
2022/04/07 00:05:36;;;;;;;0.20;0.20;;;9.10;99.90;;;;;;5023239;28;20049;-61
2022/04/07 00:08:02;;;;;;;0.10;0.10;;;9.70;99.90;;;;;;5024116;28;20040;-61
2022/04/07 00:10:27;;;;;;;0.00;0.00;;;9.20;99.90;;;;;;5039054;28;20045;-62
2022/04/07 00:12:53;;;;;;;0.10;0.10;;;9.20;99.90;;;;;;5022007;28;20599;-61
2022/04/07 00:15:19;;;;;;;0.22;0.22;;;9.20;99.90;;;;;;5023707;28;20045;-61
2022/04/07 00:17:44;;;;;;;0.00;0.00;;;9.30;99.90;;;;;;5023336;28;20060;-64
2022/04/07 00:20:10;;;;;;;0.00;0.00;;;9.20;99.90;;;;;;5022315;28;20061;-61
2022/04/07 00:22:36;;;;;;;0.20;0.20;;;9.20;99.90;;;;;;5023034;28;20404;-62
2022/04/07 00:25:03;;;;;;;0.03;0.03;;;9.20;99.90;;;;;;5023872;28;20132;-61
2022/04/07 00:27:29;;;;;;;0.00;0.00;;;9.20;99.90;;;;;;5038204;28;20060;-61
2022/04/07 00:29:54;;;;;;;0.00;0.00;;;9.20;99.90;;;;;;5023052;28;20041;-61
2022/04/07 00:32:20;;;;;;;0.10;0.10;;;9.10;99.90;;;;;;5023204;28;20377;-61
2022/04/07 00:34:46;;;;;;;0.00;0.00;;;9.10;99.90;;;;;;5023179;28;20033;-61
2022/04/07 00:37:12;;;;;;;0.10;0.10;;;9.10;99.90;;;;;;5022330;28;20057;-61
2022/04/07 00:39:38;;;;;;;0.15;0.15;;;9.00;99.90;;;;;;5037531;28;20053;-62
2022/04/07 00:42:04;;;;;;;0.00;0.00;;;8.90;99.90;;;;;;5022548;28;20125;-61
2022/04/07 00:44:30;;;;;;;0.00;0.00;;;8.80;99.90;;;;;;5023359;28;20045;-61
2022/04/07 00:46:56;;;;;;;0.20;0.15;;;8.70;99.90;;;;;;5022710;28;20377;-61
2022/04/07 00:49:21;;;;;;;0.00;0.00;;;8.60;99.90;;;;;;5023357;28;20642;-61
2022/04/07 00:51:49;;;;;;;0.00;0.00;;;8.60;99.90;;;;;;5022465;28;20623;-61
2022/04/07 00:54:16;;;;;;;0.08;0.08;;;8.60;99.90;;;;;;5021828;28;20496;-61
2022/04/07 00:56:43;;;;;;;0.00;0.00;;;8.70;99.90;;;;;;5021436;28;20053;-62
2022/04/07 00:59:16;;;;;;;0.00;0.00;;;8.70;99.90;;;;;;5022979;28;20088;-61
2022/04/07 01:01:43;;;;;;;0.30;0.10;;;8.70;99.90;;;;;;5026884;28;20079;-61
2022/04/07 01:04:09;;;;;;;0.10;0.10;;;8.70;99.90;;;;;;5027397;28;20444;-61
2022/04/07 01:06:35;;;;;;;0.00;0.00;;;8.70;99.90;;;;;;5038164;28;20200;-62
2022/04/07 01:09:00;;;;;;;0.00;0.00;;;8.70;99.90;;;;;;5042864;22;20514;-62
2022/04/07 01:11:29;;;;;;;2.45;1.13;;;8.70;99.90;;;;;;5044978;28;20506;-62
2022/04/07 01:13:54;;;;;;;0.05;0.05;;;8.30;99.90;;;;;;5041297;28;20444;-62
2022/04/07 01:16:25;;;;;;;0.00;0.00;;;8.80;99.90;;;;;;5022997;28;20049;-62
2022/04/07 01:18:51;;;;;;;0.32;0.32;;;8.80;99.90;;;;;;5022232;28;20049;-62
2022/04/07 01:21:17;;;;;;;0.00;0.00;;;8.70;99.90;;;;;;5022648;28;20053;-61
2022/04/07 01:24:02;;;;;;;0.00;0.00;;;8.70;99.90;;;;;;5022289;28;20042;-61
2022/04/07 01:26:37;;;;;;;0.00;0.00;;;8.60;99.90;;;;;;5021637;28;20053;-62
2022/04/07 01:29:04;;;;;;;0.10;0.10;;;8.60;99.90;;;;;;5022970;28;20072;-61
2022/04/07 01:31:31;;;;;;;0.00;0.00;;;8.80;99.90;;;;;;5022974;28;20058;-62
2022/04/07 01:33:58;;;;;;;0.00;0.00;;;8.60;99.90;;;;;;5021823;28;20046;-61
2022/04/07 01:36:27;;;;;;;0.00;0.00;;;8.60;99.90;;;;;;5021142;28;20049;-62
2022/04/07 01:38:53;;;;;;;0.00;0.00;;;8.60;99.90;;;;;;5022099;28;20734;-61
2022/04/07 01:41:21;;;;;;;0.00;0.00;;;8.60;99.90;;;;;;5021336;28;20064;-63
2022/04/07 01:43:49;;;;;;;0.00;0.00;;;8.60;99.90;;;;;;5021854;28;20108;-62
2022/04/07 01:46:15;;;;;;;0.00;0.00;;;8.50;99.90;;;;;;5022315;28;20056;-62
2022/04/07 01:48:43;;;;;;;0.00;0.00;;;8.50;99.90;;;;;;5021678;28;20068;-62
2022/04/07 01:51:12;;;;;;;0.00;0.00;;;8.60;99.90;;;;;;5020717;28;20064;-62
2022/04/07 01:53:38;;;;;;;0.00;0.00;;;8.40;99.90;;;;;;5021912;28;20065;-63
2022/04/07 01:56:05;;;;;;;0.10;0.10;;;8.60;99.90;;;;;;5022360;28;20053;-61
2022/04/07 01:58:31;;;;;;;0.00;0.00;;;8.40;99.90;;;;;;5020989;28;20622;-62
2022/04/07 02:00:57;;;;;;;0.00;0.00;;;8.50;99.90;;;;;;5022463;28;20045;-61
2022/04/07 02:03:23;;;;;;;0.00;0.00;;;8.50;99.90;;;;;;5029255;28;20037;-62
2022/04/07 02:05:48;;;;;;;0.00;0.00;;;8.50;99.90;;;;;;5021370;28;20114;-61
2022/04/07 02:08:14;;;;;;;4.90;0.85;;;8.60;99.90;;;;;;5021249;28;20488;-62
2022/04/07 02:10:40;;;;;;;0.00;0.00;;;8.50;99.90;;;;;;5019790;28;20061;-62
2022/04/07 02:13:06;;;;;;;0.00;0.00;;;8.70;99.90;;;;;;5020866;28;20045;-62
2022/04/07 02:15:31;;;;;;;0.00;0.00;;;8.50;99.90;;;;;;5021453;28;20049;-61
2022/04/07 02:17:57;;;;;;;0.08;0.08;;;8.60;99.90;;;;;;5020895;28;20034;-62
2022/04/07 02:20:23;;;;;;;0.00;0.00;;;8.60;99.90;;;;;;5021569;28;20060;-62
2022/04/07 02:22:48;;;;;;;0.00;0.00;;;8.60;99.90;;;;;;5021172;28;20040;-61
2022/04/07 02:25:14;;;;;;;0.10;0.10;;;8.80;99.90;;;;;;5019605;28;20046;-62
2022/04/07 02:27:42;;;;;;;0.00;0.00;;;9.80;99.90;;;;;;5018774;28;20143;-62
2022/04/07 02:30:11;;;;;;;0.00;0.00;;;8.80;99.90;;;;;;5021551;28;20061;-62
2022/04/07 02:32:36;;;;;;;0.00;0.00;;;8.80;99.90;;;;;;5020571;28;20089;-61
2022/04/07 02:35:03;;;;;;;0.00;0.00;;;8.80;99.90;;;;;;5021578;28;20077;-61
2022/04/07 02:37:29;;;;;;;0.00;0.00;;;8.60;99.90;;;;;;5021130;28;20507;-61
2022/04/07 02:39:55;;;;;;;0.00;0.00;;;8.40;99.90;;;;;;5019196;28;20128;-61
2022/04/07 02:42:21;;;;;;;0.10;0.10;;;8.30;99.90;;;;;;5020258;28;20069;-61
2022/04/07 02:44:46;;;;;;;0.00;0.00;;;8.30;99.90;;;;;;5020599;28;20119;-61
2022/04/07 02:47:12;;;;;;;0.00;0.00;;;8.20;99.90;;;;;;5020987;28;20038;-63
2022/04/07 02:49:41;;;;;;;0.00;0.00;;;8.30;99.90;;;;;;5020451;28;20103;-61
2022/04/07 02:52:11;;;;;;;0.10;0.10;;;8.30;99.90;;;;;;5021162;28;20519;-61
2022/04/07 02:54:37;;;;;;;0.10;0.10;;;8.30;99.90;;;;;;5020939;28;20405;-61
2022/04/07 02:57:03;;;;;;;0.00;0.00;;;8.30;99.90;;;;;;5035033;28;20052;-61
2022/04/07 02:59:30;;;;;;;0.00;0.00;;;8.40;99.90;;;;;;5020860;28;20037;-61
2022/04/07 03:01:56;;;;;;;0.00;0.00;;;8.40;99.90;;;;;;5031408;28;20414;-62
2022/04/07 03:04:24;;;;;;;0.00;0.00;;;8.50;99.90;;;;;;5031144;28;20519;-62
2022/04/07 03:06:51;;;;;;;0.00;0.00;;;8.90;99.90;;;;;;5026664;28;20081;-61
2022/04/07 03:09:18;;;;;;;0.80;0.80;;;8.50;99.90;;;;;;5042493;28;20095;-62
2022/04/07 03:11:46;;;;;;;0.00;0.00;;;8.50;99.90;;;;;;5026538;28;20045;-61
2022/04/07 03:14:12;;;;;;;0.40;0.20;;;8.50;99.90;;;;;;5027083;28;20057;-61
2022/04/07 03:16:38;;;;;;;0.10;0.10;;;8.70;99.90;;;;;;5027465;28;20067;-62
2022/04/07 03:19:04;;;;;;;0.00;0.00;;;8.60;99.90;;;;;;5027764;28;20504;-62
2022/04/07 03:21:29;;;;;;;0.00;0.00;;;8.60;99.90;;;;;;5027579;28;20060;-62
2022/04/07 03:23:55;;;;;;;0.00;0.00;;;8.60;99.90;;;;;;5026649;28;20053;-62
2022/04/07 03:26:21;;;;;;;0.38;0.10;;;9.80;99.90;;;;;;5026724;28;20052;-61
2022/04/07 03:28:46;;;;;;;2.42;0.70;;;8.90;99.90;;;;;;5026697;28;20076;-61
2022/04/07 03:31:12;;;;;;;0.00;0.00;;;8.70;99.90;;;;;;5026978;28;20045;-62
2022/04/07 03:33:37;;;;;;;0.00;0.00;;;9.00;99.90;;;;;;5042349;28;20435;-61
2022/04/07 03:36:03;;;;;;;0.30;0.30;;;8.60;99.90;;;;;;5026025;28;20506;-61
2022/04/07 03:38:29;;;;;;;0.10;0.10;;;8.60;99.90;;;;;;5026297;28;20344;-60
2022/04/07 03:40:55;;;;;;;0.00;0.00;;;8.60;99.90;;;;;;5025304;28;20055;-61
2022/04/07 03:43:21;;;;;;;0.00;0.00;;;8.50;99.90;;;;;;5027512;28;20495;-60
2022/04/07 03:45:47;;;;;;;0.00;0.00;;;8.50;99.90;;;;;;5042408;28;20107;-60
2022/04/07 03:48:12;;;;;;;0.00;0.00;;;8.40;99.90;;;;;;5026792;28;20037;-61
2022/04/07 03:50:38;;;;;;;0.00;0.00;;;8.30;99.90;;;;;;5027361;28;20446;-61
2022/04/07 03:53:04;;;;;;;0.00;0.00;;;8.30;99.90;;;;;;5027423;28;20041;-61
2022/04/07 03:55:30;;;;;;;0.00;0.00;;;8.30;99.90;;;;;;5026025;28;20540;-61
2022/04/07 03:57:56;;;;;;;0.00;0.00;;;8.40;99.90;;;;;;5025512;28;20045;-61
2022/04/07 04:00:23;;;;;;;0.00;0.00;;;8.30;99.90;;;;;;5027408;28;20136;-61
2022/04/07 04:02:50;;;;;;;0.10;0.10;;;8.30;99.90;;;;;;5037573;28;20088;-61
2022/04/07 04:05:17;;;;;;;0.00;0.00;;;8.30;99.90;;;;;;5042129;28;20064;-61
2022/04/07 04:07:42;;;;;;;0.00;0.00;;;8.40;99.90;;;;;;5026456;28;20045;-61
2022/04/07 04:10:08;;;;;;;0.00;0.00;;;9.20;99.90;;;;;;5026756;28;20098;-61
2022/04/07 04:12:34;;;;;;;0.10;0.10;;;8.40;99.90;;;;;;5025568;28;20439;-61
2022/04/07 04:15:01;;;;;;;0.00;0.00;;;8.40;99.90;;;;;;5023278;28;20115;-61
2022/04/07 04:17:32;;;;;;;0.00;0.00;;;8.40;99.90;;;;;;5023904;28;20463;-61
2022/04/07 04:19:58;;;;;;;0.35;0.35;;;8.40;99.90;;;;;;5023374;28;20088;-61
2022/04/07 04:22:23;;;;;;;0.00;0.00;;;8.40;99.90;;;;;;5023328;28;20073;-61
2022/04/07 04:24:49;;;;;;;0.00;0.00;;;8.40;99.90;;;;;;5023277;28;20073;-61
2022/04/07 04:27:15;;;;;;;0.00;0.00;;;8.40;99.90;;;;;;5022662;28;20081;-62
2022/04/07 04:29:43;;;;;;;0.00;0.00;;;8.40;99.90;;;;;;5023265;28;20079;-61
2022/04/07 04:32:12;;;;;;;0.00;0.00;;;8.50;99.90;;;;;;5023436;28;20046;-61
2022/04/07 04:34:37;;;;;;;0.00;0.00;;;8.50;99.90;;;;;;5038696;28;20045;-62
2022/04/07 04:37:03;;;;;;;0.00;0.00;;;8.50;99.90;;;;;;5038745;28;20036;-62
2022/04/07 04:39:29;;;;;;;0.10;0.10;;;8.50;99.90;;;;;;5022782;28;20107;-62
2022/04/07 04:41:55;;;;;;;0.00;0.00;;;8.50;99.90;;;;;;5022078;28;20045;-61
2022/04/07 04:44:20;;;;;;;0.00;0.00;;;8.40;99.90;;;;;;5038957;28;20381;-62
2022/04/07 04:46:46;;;;;;;0.00;0.00;;;8.40;99.90;;;;;;5022653;28;20038;-62
2022/04/07 04:49:11;;;;;;;0.00;0.00;;;8.40;99.90;;;;;;5021485;28;20071;-61
2022/04/07 04:51:37;;;;;;;0.00;0.00;;;8.30;99.90;;;;;;5021737;28;20535;-61
2022/04/07 04:54:03;;;;;;;0.00;0.00;;;8.30;99.90;;;;;;5023276;28;20083;-62
2022/04/07 04:56:28;;;;;;;0.30;0.30;;;8.40;99.90;;;;;;5036852;28;20115;-62
2022/04/07 04:58:57;;;;;;;0.10;0.10;;;9.10;99.90;;;;;;5022649;28;20391;-62
2022/04/07 05:01:23;;;;;;;0.05;0.05;;;8.40;99.90;;;;;;5024821;28;20044;-61
2022/04/07 05:03:48;;;;;;;0.35;0.22;;;8.30;99.90;;;;;;5030445;28;20049;-61
2022/04/07 05:06:14;;;;;;;0.00;0.00;;;8.30;99.90;;;;;;5037783;28;20049;-62
2022/04/07 05:08:40;;;;;;;0.00;0.00;;;8.30;99.90;;;;;;5021984;28;20115;-61
2022/04/07 05:11:05;;;;;;;0.00;0.00;;;8.30;99.90;;;;;;5037418;28;20649;-60
2022/04/07 05:13:31;;;;;;;0.00;0.00;;;8.30;99.90;;;;;;5022712;28;20409;-61
2022/04/07 05:15:56;;;;;;;0.00;0.00;;;8.60;99.90;;;;;;5022237;28;20080;-61
2022/04/07 05:18:22;;;;;;;0.00;0.00;;;8.30;99.90;;;;;;5022807;28;20041;-61
2022/04/07 05:20:48;;;;;;;0.00;0.00;;;8.30;99.90;;;;;;5022096;28;20588;-61
2022/04/07 05:23:13;;;;;;;0.20;0.20;;;8.20;99.90;;;;;;5021986;28;20050;-60
2022/04/07 05:25:39;;;;;;;0.00;0.00;;;8.10;99.90;;;;;;5020330;28;20516;-60
2022/04/07 05:28:06;;;;;;;0.00;0.00;;;7.80;99.90;;;;;;5021062;28;20547;-61
2022/04/07 05:30:32;;;;;;;0.00;0.00;;;7.70;99.90;;;;;;5022163;28;20084;-60
2022/04/07 05:32:58;;;;;;;0.00;0.00;;;7.60;99.90;;;;;;5021997;28;20637;-61
2022/04/07 05:35:27;;;;;;;0.00;0.00;;;7.60;99.90;;;;;;5022216;28;20119;-61
2022/04/07 05:38:02;;;;;;;0.57;0.38;;;7.50;99.90;;;;;;5021648;28;20120;-60
2022/04/07 05:40:29;;;;;;;0.00;0.00;;;7.50;99.90;;;;;;5022285;28;20053;-60
2022/04/07 05:42:55;;;;;;;0.00;0.00;;;7.50;99.90;;;;;;5020611;28;20034;-60
2022/04/07 05:45:21;;;;;;;0.00;0.00;;;7.50;99.90;;;;;;5022154;28;20528;-61
2022/04/07 05:47:47;;;;;;;0.00;0.00;;;7.60;99.90;;;;;;5021155;28;20141;-60
2022/04/07 05:50:13;;;;;;;0.00;0.00;;;7.50;99.90;;;;;;5022130;28;20153;-60
2022/04/07 05:52:38;;;;;;;0.00;0.00;;;7.60;99.90;;;;;;5021712;28;20081;-60
2022/04/07 05:55:05;;;;;;;0.00;0.00;;;7.50;99.90;;;;;;5021837;28;20148;-60
2022/04/07 05:57:30;;;;;;;0.10;0.10;;;7.00;99.90;;;;;;5021055;28;20049;-60
2022/04/07 06:00:06;;;;;;;0.00;0.00;;;7.40;99.90;;;;;;5021281;28;20083;-60
2022/04/07 06:02:32;;;;;;;0.00;0.00;;;7.30;99.90;;;;;;5031589;28;20123;-60
2022/04/07 06:04:58;;;;;;;0.00;0.00;;;7.40;99.90;;;;;;5039424;28;20480;-60
2022/04/07 06:07:24;;;;;;;0.00;0.00;;;6.90;99.90;;;;;;5041268;28;20041;-60
2022/04/07 06:09:50;;;;;;;0.00;0.00;;;5.90;99.90;;;;;;5040768;28;20499;-60
2022/04/07 06:12:15;;;;;;;0.00;0.00;;;5.70;99.90;;;;;;5039004;28;20041;-60
2022/04/07 06:14:41;;;;;;;0.00;0.00;;;5.40;99.90;;;;;;5041328;28;20051;-60
2022/04/07 06:17:06;;;;;;;0.00;0.00;;;5.40;99.90;;;;;;5041352;28;20048;-60
2022/04/07 06:19:32;;;;;;;0.00;0.00;;;5.40;99.90;;;;;;5040950;28;20045;-60
2022/04/07 06:21:58;;;;;;;0.00;0.00;;;5.40;99.90;;;;;;5040632;28;20071;-60
2022/04/07 06:24:23;;;;;;;0.00;0.00;;;5.50;99.90;;;;;;5041283;28;20037;-60
2022/04/07 06:26:49;;;;;;;0.00;0.00;;;5.40;99.90;;;;;;5038616;28;20056;-62
2022/04/07 06:29:15;;;;;;;0.00;0.00;;;6.30;99.90;;;;;;5039467;28;20037;-60
2022/04/07 06:31:41;;;;;;;0.00;0.00;;;6.10;99.90;;;;;;5040833;28;20044;-60
2022/04/07 06:34:06;;;;;;;0.00;0.00;;;5.30;99.90;;;;;;5041060;28;20122;-60
2022/04/07 06:36:32;;;;;;;0.00;0.00;;;5.30;99.90;;;;;;5040928;28;20175;-60
2022/04/07 06:38:58;;;;;;;0.00;0.00;;;5.40;99.90;;;;;;5040266;28;20041;-59
2022/04/07 06:41:23;;;;;;;0.00;0.00;;;5.30;99.90;;;;;;5040345;28;20072;-60
2022/04/07 06:43:49;;;;;;;0.00;0.00;;;5.30;99.90;;;;;;5039205;28;20041;-60
2022/04/07 06:46:14;;;;;;;0.00;0.00;;;5.30;99.90;;;;;;5040428;28;20589;-60
2022/04/07 06:48:40;;;;;;;0.00;0.00;;;5.20;99.90;;;;;;5040646;28;20120;-60
2022/04/07 06:51:06;;;;;;;0.00;0.00;;;5.20;99.90;;;;;;5040910;28;20490;-60
2022/04/07 06:53:31;;;;;;;0.00;0.00;;;5.20;99.90;;;;;;5041565;28;20074;-60
2022/04/07 06:55:57;;;;;;;0.75;0.75;;;5.10;99.90;;;;;;5039080;28;20097;-60
2022/04/07 06:58:22;;;;;;;0.00;0.00;;;5.10;99.90;;;;;;5039591;28;20036;-61
2022/04/07 07:00:48;;;;;;;0.00;0.00;;;5.10;99.90;;;;;;5038390;28;20037;-61
2022/04/07 07:03:15;;;;;;;0.00;0.00;;;5.10;99.90;;;;;;5029680;28;20653;-62
2022/04/07 07:05:41;;;;;;;0.00;0.00;;;5.10;99.90;;;;;;5020212;28;20038;-61
2022/04/07 07:08:17;;;;;;;0.00;0.00;;;5.10;99.90;;;;;;5020677;28;20108;-62
2022/04/07 07:10:49;;;;;;;0.00;0.00;;;5.10;99.90;;;;;;5019297;28;20076;-61
2022/04/07 07:13:20;;;;;;;0.00;0.00;;;5.00;99.90;;;;;;5020906;28;20447;-61
2022/04/07 07:15:46;;;;;;;0.00;0.00;;;5.00;99.90;;;;;;5020220;28;20428;-61
2022/04/07 07:18:12;;;;;;;0.00;0.00;;;5.00;99.90;;;;;;5019926;28;20049;-61
2022/04/07 07:20:38;;;;;;;0.00;0.00;;;4.90;99.90;;;;;;5020436;28;20128;-61
2022/04/07 07:23:04;;;;;;;0.00;0.00;;;5.00;99.90;;;;;;5020718;28;20184;-61
2022/04/07 07:25:31;;;;;;;0.00;0.00;;;5.00;99.90;;;;;;5020435;28;20034;-62
2022/04/07 07:27:58;;;;;;;0.00;0.00;;;5.10;99.90;;;;;;5019389;28;20068;-62
2022/04/07 07:30:24;;;;;;;0.00;0.00;;;5.10;99.90;;;;;;5020826;28;20033;-61
2022/04/07 07:32:51;;;;;;;0.00;0.00;;;5.20;99.90;;;;;;5018735;28;20069;-60
2022/04/07 07:35:19;;;;;;;0.00;0.00;;;5.40;99.90;;;;;;5020182;28;20149;-62
2022/04/07 07:37:49;;;;;;;0.00;0.00;;;5.50;99.90;;;;;;5020206;28;20041;-61
2022/04/07 07:40:15;;;;;;;0.00;0.00;;;5.60;99.90;;;;;;5018645;28;20183;-61
2022/04/07 07:42:42;;;;;;;0.00;0.00;;;5.70;99.90;;;;;;5020208;28;20160;-61
2022/04/07 07:45:08;;;;;;;0.00;0.00;;;5.60;99.90;;;;;;5020204;28;20049;-61
2022/04/07 07:47:34;;;;;;;0.00;0.00;;;5.60;99.90;;;;;;5021208;28;20033;-63
2022/04/07 07:50:01;;;;;;;0.00;0.00;;;5.60;99.90;;;;;;5022987;28;20696;-63
2022/04/07 07:52:26;;;;;;;0.28;0.22;;;5.70;99.90;;;;;;5023721;28;20048;-64
2022/04/07 07:54:52;;;;;;;0.00;0.00;;;5.60;99.90;;;;;;5039356;28;20045;-63
2022/04/07 07:57:19;;;;;;;0.00;0.00;;;5.60;99.90;;;;;;5038801;28;20046;-63
2022/04/07 07:59:45;;;;;;;0.00;0.00;;;5.60;99.90;;;;;;5023366;28;20049;-63
2022/04/07 08:02:11;;;;;;;0.00;0.00;;;5.50;99.90;;;;;;5033851;28;20484;-63
2022/04/07 08:04:36;;;;;;;0.00;0.00;;;5.60;99.90;;;;;;5025477;28;20049;-63
2022/04/07 08:07:02;;;;;;;0.00;0.00;;;5.60;99.90;;;;;;5022274;28;20049;-63
2022/04/07 08:09:28;;;;;;;0.00;0.00;;;5.60;99.90;;;;;;5038610;28;20049;-64
2022/04/07 08:11:54;;;;;;;0.00;0.00;;;5.60;99.90;;;;;;5041455;28;20059;-63
2022/04/07 08:14:20;;;;;;;0.00;0.00;;;5.60;99.90;;;;;;5043332;28;20068;-63
2022/04/07 08:16:45;;;;;;;0.00;0.00;;;5.60;99.90;;;;;;5042804;28;20491;-63
2022/04/07 08:19:11;;;;;;;0.00;0.00;;;5.60;99.90;;;;;;5042825;28;20053;-63
2022/04/07 08:21:37;;;;;;;0.00;0.00;;;5.60;99.90;;;;;;5043509;28;20076;-64
2022/04/07 08:24:04;;;;;;;0.00;0.00;;;5.70;99.90;;;;;;5042398;28;20053;-63
2022/04/07 08:26:29;;;;;;;0.00;0.00;;;5.70;99.90;;;;;;5042307;28;20045;-64
2022/04/07 08:28:55;;;;;;;0.00;0.00;;;5.70;99.90;;;;;;5042657;28;20059;-63
2022/04/07 08:31:21;;;;;;;0.00;0.00;;;5.70;99.90;;;;;;5043492;28;20040;-64
2022/04/07 08:33:46;;;;;;;0.00;0.00;;;5.70;99.90;;;;;;5041440;28;20049;-63
2022/04/07 08:36:12;;;;;;;0.00;0.00;;;5.60;99.90;;;;;;5042483;28;20069;-63
2022/04/07 08:38:38;;;;;;;0.00;0.00;;;5.70;99.90;;;;;;5042646;28;20093;-63
2022/04/07 08:41:09;;;;;;;0.00;0.00;;;5.70;99.90;;;;;;5042666;28;20045;-63
2022/04/07 08:43:38;;;;;;;0.00;0.00;;;5.70;99.90;;;;;;5043818;28;20403;-64
2022/04/07 08:46:07;;;;;;;0.00;0.00;;;5.80;99.90;;;;;;5043837;28;20053;-64
2022/04/07 08:48:44;;;;;;;0.00;0.00;;;5.90;99.90;;;;;;5042525;28;20130;-64
2022/04/07 08:51:11;;;;;;;0.00;0.00;;;5.90;99.90;;;;;;5041730;28;20056;-65
2022/04/07 08:53:40;;;;;;;0.00;0.00;;;6.00;99.90;;;;;;5043448;28;20086;-64
2022/04/07 08:56:07;;;;;;;0.00;0.00;;;6.20;99.90;;;;;;5042591;28;20418;-63
2022/04/07 08:58:33;;;;;;;0.00;0.00;;;5.90;99.90;;;;;;5041495;28;20090;-64
2022/04/07 09:00:59;;;;;;;0.00;0.00;;;7.10;99.90;;;;;;5038720;28;20040;-63
2022/04/07 09:03:25;;;;;;;0.00;0.00;;;7.40;99.90;;;;;;5032123;28;20046;-64
2022/04/07 09:05:59;;;;;;;0.00;0.00;;;7.60;99.90;;;;;;5022718;28;20052;-63
2022/04/07 09:08:37;;;;;;;0.00;0.00;;;7.80;99.90;;;;;;5022875;28;20471;-63
2022/04/07 09:11:08;;;;;;;0.00;0.00;;;7.90;99.90;;;;;;5021179;28;20187;-63
2022/04/07 09:13:35;;;;;;;0.00;0.00;;;8.00;99.90;;;;;;5038088;28;20120;-63
2022/04/07 09:16:04;;;;;;;0.00;0.00;;;8.10;99.90;;;;;;5023009;28;20100;-64
2022/04/07 09:18:37;;;;;;;0.00;0.00;;;8.10;99.90;;;;;;5023048;28;20067;-63
2022/04/07 09:21:05;;;;;;;0.00;0.00;;;8.20;99.90;;;;;;5022283;28;20057;-63
2022/04/07 09:23:40;;;;;;;0.00;0.00;;;8.40;99.90;;;;;;5023083;28;20443;-63
2022/04/07 09:26:11;;;;;;;0.22;0.22;;;8.40;99.90;;;;;;5022132;28;20119;-63
2022/04/07 09:28:36;;;;;;;0.00;0.00;;;8.50;99.90;;;;;;5020883;28;20488;-64
2022/04/07 09:31:02;;;;;;;0.00;0.00;;;8.40;99.90;;;;;;5023254;28;20041;-63
2022/04/07 09:33:29;;;;;;;0.00;0.00;;;8.20;99.90;;;;;;5022550;28;20132;-62
2022/04/07 09:36:10;;;;;;;0.00;0.00;;;8.30;99.90;;;;;;5021727;28;20053;-62
2022/04/07 09:38:36;;;;;;;0.35;0.35;;;8.30;99.90;;;;;;5022384;28;20404;-63
2022/04/07 09:41:10;;;;;;;0.00;0.00;;;8.60;99.90;;;;;;5021970;28;20053;-62
2022/04/07 09:43:46;;;;;;;0.00;0.00;;;8.40;99.90;;;;;;5022241;28;20075;-63
2022/04/07 09:46:13;;;;;;;0.00;0.00;;;8.50;99.90;;;;;;5022539;28;20661;-63
2022/04/07 09:48:40;;;;;;;0.00;0.00;;;8.40;99.90;;;;;;5021591;28;20041;-63
2022/04/07 09:51:07;;;;;;;0.00;0.00;;;8.40;99.90;;;;;;5022171;28;20093;-63
2022/04/07 09:53:38;;;;;;;0.00;0.00;;;8.40;99.90;;;;;;5022625;28;20491;-64
2022/04/07 09:56:06;;;;;;;0.00;0.00;;;8.40;99.90;;;;;;5020932;28;20061;-64
2022/04/07 09:58:33;;;;;;;0.00;0.00;;;8.50;99.90;;;;;;5022401;28;20048;-63
2022/04/07 10:01:02;;;;;;;0.00;0.00;;;8.70;99.90;;;;;;5024275;28;20120;-64
2022/04/07 10:03:29;;;;;;;0.00;0.00;;;8.60;99.90;;;;;;5030887;28;20128;-64
2022/04/07 10:05:59;;;;;;;0.00;0.00;;;8.60;99.90;;;;;;5021659;28;20079;-63
2022/04/07 10:08:26;;;;;;;0.00;0.00;;;8.70;99.90;;;;;;5022044;28;20064;-63
2022/04/07 10:10:52;;;;;;;0.00;0.00;;;8.80;99.90;;;;;;5019795;28;20049;-63
2022/04/07 10:13:19;;;;;;;0.00;0.00;;;9.00;99.90;;;;;;5021290;28;20037;-63
2022/04/07 10:15:45;;;;;;;0.00;0.00;;;9.40;99.90;;;;;;5021527;28;20037;-62
2022/04/07 10:18:24;;;;;;;0.00;0.00;;;9.70;99.90;;;;;;5021852;28;20045;-63
2022/04/07 10:20:53;;;;;;;0.00;0.00;;;9.70;99.90;;;;;;5019719;28;20103;-62
2022/04/07 10:23:57;;;;;;;0.00;0.00;;;10.00;99.90;;;;;;5021691;28;20120;-63
2022/04/07 10:26:25;;;;;;;0.00;0.00;;;9.70;99.90;;;;;;5011797;28;20057;-63
2022/04/07 10:28:55;;;;;;;0.00;0.00;;;9.60;99.90;;;;;;5021116;28;20048;-62
2022/04/07 10:31:22;;;;;;;0.00;0.00;;;9.40;99.90;;;;;;5021144;28;20725;-63
2022/04/07 10:33:48;;;;;;;0.00;0.00;;;9.80;99.90;;;;;;5021257;28;20211;-63
2022/04/07 10:36:16;;;;;;;0.00;0.00;;;10.10;99.90;;;;;;5020135;28;20132;-62
2022/04/07 10:38:44;;;;;;;0.00;0.00;;;10.10;99.90;;;;;;5020580;28;20053;-63
2022/04/07 10:41:10;;;;;;;0.15;0.15;;;10.00;99.90;;;;;;5020670;28;20072;-63
2022/04/07 10:43:38;;;;;;;0.00;0.00;;;9.90;99.90;;;;;;5021052;28;20158;-63
2022/04/07 10:46:06;;;;;;;0.00;0.00;;;9.80;99.90;;;;;;5020285;28;20400;-63
2022/04/07 10:48:33;;;;;;;0.00;0.00;;;9.30;99.90;;;;;;5021398;28;20144;-63
2022/04/07 10:51:03;;;;;;;0.00;0.00;;;9.00;99.90;;;;;;5021011;28;20052;-63
2022/04/07 10:53:34;;;;;;;0.00;0.00;;;8.40;99.90;;;;;;5021226;28;20046;-63
2022/04/07 10:56:02;;;;;;;0.00;0.00;;;8.20;99.90;;;;;;5020224;28;20056;-61
2022/04/07 10:58:51;;;;;;;0.00;0.00;;;8.10;99.90;;;;;;5020837;28;20041;-61
2022/04/07 11:01:30;;;;;;;0.00;0.00;;;8.10;99.90;;;;;;5023001;28;20038;-60
2022/04/07 11:04:18;;;;;;;0.00;0.00;;;8.20;99.90;;;;;;5033237;28;20045;-61
2022/04/07 11:07:05;;;;;;;0.00;0.00;;;8.60;99.90;;;;;;5040422;28;20095;-61
2022/04/07 11:09:49;;;;;;;0.20;0.20;;;9.00;99.90;;;;;;5040584;28;20099;-60
2022/04/07 11:12:29;;;;;;;0.00;0.00;;;9.50;99.90;;;;;;5040433;28;20056;-61
2022/04/07 11:15:03;;;;;;;0.15;0.15;;;9.10;99.90;;;;;;5039535;28;20049;-61
2022/04/07 11:17:41;;;;;;;0.00;0.00;;;8.60;99.90;;;;;;5039511;28;20060;-60
2022/04/07 11:20:23;;;;;;;0.00;0.00;;;8.70;99.90;;;;;;5040385;28;20088;-61
2022/04/07 11:22:58;;;;;;;0.00;0.00;;;8.80;99.90;;;;;;5042307;28;20041;-60
2022/04/07 11:25:35;;;;;;;0.00;0.00;;;9.30;99.90;;;;;;5043939;28;20111;-60
2022/04/07 11:28:15;;;;;;;0.00;0.00;;;9.50;99.90;;;;;;5044514;28;20486;-60
2022/04/07 11:30:44;;;;;;;0.00;0.00;;;8.80;99.90;;;;;;5044080;28;20427;-61
2022/04/07 11:33:20;;;;;;;0.00;0.00;;;8.20;99.90;;;;;;5043919;28;20045;-60
2022/04/07 11:36:00;;;;;;;0.00;0.00;;;8.20;99.90;;;;;;5043967;28;20053;-60
2022/04/07 11:38:32;;;;;;;0.00;0.00;;;7.70;99.90;;;;;;5043753;28;20120;-60
2022/04/07 11:41:01;;;;;;;0.90;0.20;;;7.40;99.90;;;;;;5042959;28;20051;-60
2022/04/07 11:43:26;;;;;;;0.00;0.00;;;7.70;99.90;;;;;;5042959;28;20634;-60
2022/04/07 11:45:54;;;;;;;0.10;0.10;;;8.10;99.90;;;;;;5042949;28;20048;-60
2022/04/07 11:48:23;;;;;;;0.00;0.00;;;8.50;99.90;;;;;;5044200;28;20041;-60
2022/04/07 11:50:52;;;;;;;0.00;0.00;;;8.90;99.90;;;;;;5043873;28;20049;-60
2022/04/07 11:53:17;;;;;;;0.00;0.00;;;9.20;99.90;;;;;;5043902;28;20048;-62
2022/04/07 11:55:43;;;;;;;0.00;0.00;;;9.40;99.90;;;;;;5042966;28;20041;-60
2022/04/07 11:58:15;;;;;;;0.35;0.35;;;9.50;99.90;;;;;;5043725;28;20041;-61
2022/04/07 12:00:41;;;;;;;0.00;0.00;;;10.30;99.90;;;;;;5041480;28;20144;-61
2022/04/07 12:03:07;;;;;;;0.00;0.00;;;9.90;99.90;;;;;;5032826;28;20076;-62
2022/04/07 12:05:39;;;;;;;0.00;0.00;;;9.90;99.90;;;;;;5024118;28;20095;-61
2022/04/07 12:08:15;;;;;;;0.00;0.00;;;9.70;99.90;;;;;;5023573;28;20057;-62
2022/04/07 12:10:45;;;;;;;0.00;0.00;;;9.30;99.90;;;;;;5022649;28;20144;-61
2022/04/07 12:13:11;;;;;;;0.52;0.52;;;9.30;99.90;;;;;;5023811;28;20041;-61
2022/04/07 12:15:38;;;;;;;0.00;0.00;;;9.40;99.90;;;;;;5023386;28;20075;-63
2022/04/07 12:18:06;;;;;;;0.00;0.00;;;9.60;99.90;;;;;;5023020;28;20116;-61
2022/04/07 12:20:34;;;;;;;0.03;0.03;;;9.60;99.90;;;;;;5024000;28;20045;-61
2022/04/07 12:23:11;;;;;;;0.00;0.00;;;9.70;99.90;;;;;;5023849;28;20209;-61
2022/04/07 12:25:38;;;;;;;0.10;0.10;;;9.80;99.90;;;;;;5021600;28;20049;-61
2022/04/07 12:28:11;;;;;;;0.00;0.00;;;10.80;99.90;;;;;;5023649;28;20053;-62
2022/04/07 12:30:51;;;;;;;0.00;0.00;;;10.20;99.90;;;;;;5023448;28;20403;-60
2022/04/07 12:33:38;;;;;;;0.20;0.20;;;10.50;99.90;;;;;;5022298;28;20124;-63
2022/04/07 12:36:05;;;;;;;0.00;0.00;;;10.50;99.90;;;;;;5023391;28;20144;-64
2022/04/07 12:38:31;;;;;;;0.00;0.00;;;10.50;99.90;;;;;;5024264;28;20044;-63
2022/04/07 12:41:11;;;;;;;0.00;0.00;;;10.50;99.90;;;;;;5037743;28;20531;-63
2022/04/07 12:43:51;;;;;;;0.00;0.00;;;10.30;99.90;;;;;;5038109;28;20451;-64
2022/04/07 12:46:20;;;;;;;0.00;0.00;;;10.20;99.90;;;;;;5023572;28;20045;-63
2022/04/07 12:48:59;;;;;;;0.00;0.00;;;9.90;99.90;;;;;;5022824;28;20132;-63
2022/04/07 12:51:26;;;;;;;0.00;0.00;;;10.20;99.90;;;;;;5023492;28;20338;-64
2022/04/07 12:54:08;;;;;;;0.00;0.00;;;9.50;99.90;;;;;;5038102;28;20045;-64
2022/04/07 12:56:34;;;;;;;0.00;0.00;;;9.50;99.90;;;;;;5022876;28;20049;-64
2022/04/07 12:59:04;;;;;;;0.00;0.00;;;9.20;99.90;;;;;;5021644;28;20500;-63
2022/04/07 13:01:33;;;;;;;0.00;0.00;;;7.10;99.90;;;;;;5027316;28;20076;-63